Time;durP1;ratioP1;P1;durP2;ratioP2;P2;SDS_P1;SDS_P2;PMS_P1;PMS_P2;Temp;Humidity;BMP_temperature;BMP_pressure;BME280_temperature;BME280_humidity;BME280_pressure;Samples;Min_cycle;Max_cycle;Signal;HPM_P1;HPM_P2
2022/10/08 00:02:16;;;;;;;12.90;3.95;;;12.50;99.90;;;;;;5033182;28;20037;-63
2022/10/08 00:04:42;;;;;;;13.82;3.83;;;12.60;99.90;;;;;;5029304;28;20443;-64
2022/10/08 00:07:07;;;;;;;13.93;3.88;;;12.60;99.90;;;;;;5027589;28;20083;-65
2022/10/08 00:09:33;;;;;;;14.52;3.92;;;12.60;99.90;;;;;;5032164;28;20035;-63
2022/10/08 00:11:59;;;;;;;10.45;3.83;;;12.60;99.90;;;;;;5032284;28;20037;-63
2022/10/08 00:14:24;;;;;;;13.32;3.97;;;12.60;99.90;;;;;;5002503;28;20099;-63
2022/10/08 00:16:50;;;;;;;10.77;4.30;;;12.60;99.90;;;;;;5037676;28;20046;-63
2022/10/08 00:19:16;;;;;;;12.48;4.47;;;12.60;99.90;;;;;;5014659;28;20096;-65
2022/10/08 00:21:43;;;;;;;15.55;4.18;;;12.60;99.90;;;;;;5020673;28;20539;-63
2022/10/08 00:24:12;;;;;;;12.85;4.45;;;12.50;99.90;;;;;;5025293;28;20132;-63
2022/10/08 00:26:39;;;;;;;10.57;3.97;;;12.50;99.90;;;;;;5014021;28;20033;-64
2022/10/08 00:29:05;;;;;;;15.07;4.68;;;12.40;99.90;;;;;;5008998;28;20095;-63
2022/10/08 00:31:37;;;;;;;12.52;4.60;;;12.40;99.90;;;;;;5030884;28;20038;-64
2022/10/08 00:34:09;;;;;;;14.27;4.20;;;12.40;99.90;;;;;;5031397;28;20099;-64
2022/10/08 00:36:36;;;;;;;15.05;4.50;;;12.30;99.90;;;;;;5051171;28;20102;-64
2022/10/08 00:39:06;;;;;;;18.05;4.57;;;12.30;99.90;;;;;;5020059;28;20095;-63
2022/10/08 00:41:35;;;;;;;16.27;4.82;;;12.30;99.90;;;;;;5028869;28;20041;-64
2022/10/08 00:44:02;;;;;;;12.68;5.07;;;12.20;99.90;;;;;;5031728;28;20041;-63
2022/10/08 00:46:33;;;;;;;10.15;5.30;;;12.20;99.90;;;;;;5024708;28;20116;-63
2022/10/08 00:49:19;;;;;;;12.85;5.90;;;12.20;99.90;;;;;;5031302;28;20049;-64
2022/10/08 00:51:49;;;;;;;12.05;4.97;;;12.10;99.90;;;;;;5040468;28;20290;-64
2022/10/08 00:54:17;;;;;;;13.40;5.28;;;12.10;99.90;;;;;;5046132;28;20045;-64
2022/10/08 00:56:43;;;;;;;19.30;5.50;;;12.10;99.90;;;;;;5002862;28;20552;-63
2022/10/08 00:59:10;;;;;;;16.05;6.00;;;12.20;99.90;;;;;;5011555;28;20124;-63
2022/10/08 01:01:36;;;;;;;18.48;6.03;;;12.20;99.90;;;;;;5028840;28;20041;-65
2022/10/08 01:04:05;;;;;;;17.77;6.32;;;12.20;99.90;;;;;;5025518;28;20069;-63
2022/10/08 01:06:46;;;;;;;14.85;6.28;;;12.20;99.90;;;;;;4994593;28;1049488;-65
2022/10/08 01:09:22;;;;;;;17.85;5.65;;;12.20;99.90;;;;;;5032489;28;20072;-63
2022/10/08 01:12:17;;;;;;;11.50;5.50;;;12.20;99.90;;;;;;5027737;28;20496;-65
2022/10/08 01:15:02;;;;;;;13.50;5.20;;;12.20;99.90;;;;;;5024890;28;20181;-63
2022/10/08 01:17:43;;;;;;;12.75;5.80;;;12.20;99.90;;;;;;5032098;28;20038;-63
2022/10/08 01:20:28;;;;;;;18.50;6.23;;;12.20;99.90;;;;;;5029678;28;20542;-64
2022/10/08 01:23:05;;;;;;;15.15;7.43;;;12.30;99.90;;;;;;5019738;28;20037;-64
2022/10/08 01:25:46;;;;;;;15.23;8.27;;;12.30;99.90;;;;;;5013590;28;20037;-63
2022/10/08 01:28:33;;;;;;;15.65;7.80;;;12.30;99.90;;;;;;5026736;28;20116;-64
2022/10/08 01:31:04;;;;;;;14.27;8.70;;;12.20;99.90;;;;;;5023351;28;20064;-64
2022/10/08 01:33:42;;;;;;;13.88;8.15;;;12.20;99.90;;;;;;5031772;28;20569;-64
2022/10/08 01:36:09;;;;;;;19.88;8.95;;;12.20;99.90;;;;;;5008301;28;20076;-63
2022/10/08 01:38:40;;;;;;;14.90;7.60;;;12.20;99.90;;;;;;5019862;28;20088;-63
2022/10/08 01:41:08;;;;;;;16.02;7.28;;;12.20;99.90;;;;;;5013497;28;20496;-63
2022/10/08 01:43:39;;;;;;;14.32;7.43;;;12.20;99.90;;;;;;5031893;28;20072;-62
2022/10/08 01:46:13;;;;;;;18.00;7.90;;;12.20;99.90;;;;;;5008294;28;20046;-63
2022/10/08 01:48:41;;;;;;;13.63;6.88;;;12.20;99.90;;;;;;5011029;28;20595;-62
2022/10/08 01:51:16;;;;;;;11.98;6.50;;;12.20;99.90;;;;;;5033800;28;20048;-64
2022/10/08 01:53:44;;;;;;;13.43;6.85;;;12.10;99.90;;;;;;5037903;28;20045;-63
2022/10/08 01:56:16;;;;;;;15.20;6.47;;;12.20;99.90;;;;;;5024825;28;20435;-62
2022/10/08 01:58:46;;;;;;;;;;;12.10;99.90;;;;;;5031359;28;20044;-62
2022/10/08 02:01:17;;;;;;;12.63;5.43;;;12.20;99.90;;;;;;5026169;28;19917;-63
2022/10/08 02:04:32;;;;;;;8.55;5.25;;;12.10;99.90;;;;;;5014376;28;20061;-63
2022/10/08 02:06:32;;;;;;;11.60;5.45;;;12.10;99.90;;;;;;5030490;28;20384;-64
2022/10/08 02:08:57;;;;;;;8.70;5.28;;;12.20;99.90;;;;;;5027478;28;20037;-63
2022/10/08 02:11:23;;;;;;;11.10;5.68;;;12.20;99.90;;;;;;5010399;28;20392;-64
2022/10/08 02:13:49;;;;;;;14.05;5.90;;;12.20;99.90;;;;;;5030802;28;20065;-64
2022/10/08 02:16:25;;;;;;;10.18;5.10;;;12.20;99.90;;;;;;5031005;28;20072;-64
2022/10/08 02:19:05;;;;;;;9.40;5.22;;;12.20;99.90;;;;;;5027058;28;20033;-64
2022/10/08 02:21:33;;;;;;;9.95;5.20;;;12.20;99.90;;;;;;5010947;28;20041;-62
2022/10/08 02:24:18;;;;;;;8.70;5.07;;;12.20;99.90;;;;;;5013046;28;20621;-64
2022/10/08 02:26:49;;;;;;;11.75;5.53;;;12.20;99.90;;;;;;5030856;28;20084;-63
2022/10/08 02:29:22;;;;;;;12.32;5.00;;;12.20;99.90;;;;;;5007973;28;20055;-64
2022/10/08 02:31:54;;;;;;;12.52;5.40;;;12.20;99.90;;;;;;5030345;28;20065;-63
2022/10/08 02:34:25;;;;;;;10.27;5.43;;;12.20;99.90;;;;;;5027375;28;20069;-64
2022/10/08 02:36:57;;;;;;;;;;;12.20;99.90;;;;;;5024969;28;20045;-63
2022/10/08 02:39:25;;;;;;;10.93;5.05;;;12.10;99.90;;;;;;5030506;28;19979;-64
2022/10/08 02:41:55;;;;;;;9.57;5.13;;;12.10;99.90;;;;;;5030419;28;20033;-63
2022/10/08 02:44:29;;;;;;;14.48;5.35;;;12.10;99.90;;;;;;5014018;28;20046;-63
2022/10/08 02:46:59;;;;;;;9.68;5.00;;;12.10;99.90;;;;;;5012193;28;20033;-63
2022/10/08 02:49:29;;;;;;;8.75;5.22;;;12.00;99.90;;;;;;5030399;28;20462;-63
2022/10/08 02:52:00;;;;;;;12.57;5.40;;;12.00;99.90;;;;;;5026829;28;20033;-63
2022/10/08 02:54:28;;;;;;;8.77;4.82;;;12.00;99.90;;;;;;5028870;28;20411;-62
2022/10/08 02:57:09;;;;;;;9.07;4.88;;;11.90;99.90;;;;;;5030016;28;20647;-63
2022/10/08 02:59:35;;;;;;;9.63;4.72;;;11.90;99.90;;;;;;5030812;28;20069;-63
2022/10/08 03:02:02;;;;;;;14.98;4.88;;;11.90;99.90;;;;;;5018873;28;20112;-63
2022/10/08 03:04:39;;;;;;;10.65;5.10;;;11.80;99.90;;;;;;5026597;28;20033;-63
2022/10/08 03:07:06;;;;;;;9.40;4.78;;;11.80;99.90;;;;;;5010804;28;20042;-63
2022/10/08 03:09:36;;;;;;;8.73;4.63;;;11.80;99.90;;;;;;5020440;28;20072;-62
2022/10/08 03:12:02;;;;;;;7.45;4.60;;;11.70;99.90;;;;;;5030000;28;20551;-62
2022/10/08 03:14:33;;;;;;;10.60;5.07;;;11.60;99.90;;;;;;5012447;28;20120;-62
2022/10/08 03:16:59;;;;;;;10.57;4.75;;;11.60;99.90;;;;;;5018259;28;20049;-63
2022/10/08 03:19:24;;;;;;;14.50;4.88;;;11.50;99.90;;;;;;5018094;28;20484;-63
2022/10/08 03:21:53;;;;;;;10.20;4.63;;;11.50;99.90;;;;;;5029794;28;20033;-63
2022/10/08 03:24:19;;;;;;;7.28;4.40;;;11.40;99.90;;;;;;5025787;28;20239;-64
2022/10/08 03:26:45;;;;;;;11.73;4.90;;;11.40;99.90;;;;;;5027612;28;20529;-63
2022/10/08 03:29:10;;;;;;;8.15;5.10;;;11.30;99.90;;;;;;5033817;28;20104;-63
2022/10/08 03:31:36;;;;;;;13.52;5.03;;;11.30;99.90;;;;;;5033627;28;20037;-64
2022/10/08 03:34:02;;;;;;;13.18;4.72;;;11.20;99.90;;;;;;5030690;28;20488;-63
2022/10/08 03:36:28;;;;;;;10.15;5.03;;;11.20;99.90;;;;;;5022653;28;20125;-63
2022/10/08 03:38:54;;;;;;;9.13;4.85;;;11.20;99.90;;;;;;5033482;28;20034;-63
2022/10/08 03:41:19;;;;;;;8.18;4.70;;;11.10;99.90;;;;;;5029435;28;20071;-64
2022/10/08 03:43:45;;;;;;;12.48;5.25;;;11.00;99.90;;;;;;5032688;28;20757;-63
2022/10/08 03:46:13;;;;;;;14.75;5.22;;;11.00;99.90;;;;;;5015489;28;20033;-63
2022/10/08 03:48:39;;;;;;;14.77;5.53;;;11.00;99.90;;;;;;5029896;28;20069;-63
2022/10/08 03:51:09;;;;;;;10.93;5.40;;;10.90;99.90;;;;;;5018808;28;20036;-64
2022/10/08 03:53:36;;;;;;;9.55;5.28;;;10.90;99.90;;;;;;5035548;28;20038;-63
2022/10/08 03:56:14;;;;;;;13.15;5.32;;;10.90;99.90;;;;;;5033266;28;20523;-64
2022/10/08 03:58:40;;;;;;;17.08;5.82;;;10.90;99.90;;;;;;5024162;28;20118;-63
2022/10/08 04:01:16;;;;;;;14.63;5.78;;;10.90;99.90;;;;;;5032509;28;20546;-62
2022/10/08 04:03:44;;;;;;;9.73;5.28;;;10.90;99.90;;;;;;5033602;28;20403;-63
2022/10/08 04:06:10;;;;;;;12.55;6.18;;;10.90;99.90;;;;;;5033237;28;20037;-63
2022/10/08 04:08:36;;;;;;;15.45;5.63;;;11.00;99.90;;;;;;5021704;28;20515;-62
2022/10/08 04:11:04;;;;;;;15.75;5.45;;;11.00;99.90;;;;;;5032410;28;20069;-62
2022/10/08 04:13:29;;;;;;;16.27;5.82;;;11.00;99.90;;;;;;5033134;28;20525;-62
2022/10/08 04:16:04;;;;;;;11.77;6.40;;;11.00;99.90;;;;;;5020269;28;20037;-63
2022/10/08 04:18:30;;;;;;;12.93;6.55;;;11.00;99.90;;;;;;5029391;28;20068;-63
2022/10/08 04:20:57;;;;;;;13.25;6.20;;;11.10;99.90;;;;;;5032974;28;20495;-63
2022/10/08 04:23:23;;;;;;;14.18;6.55;;;10.90;99.90;;;;;;5029503;28;20452;-62
2022/10/08 04:25:50;;;;;;;15.52;6.05;;;11.00;99.90;;;;;;5028334;28;20152;-63
2022/10/08 04:28:16;;;;;;;12.25;6.28;;;11.00;99.90;;;;;;5033007;28;20064;-63
2022/10/08 04:30:42;;;;;;;18.55;6.28;;;11.10;99.90;;;;;;5030166;28;20042;-63
2022/10/08 04:33:08;;;;;;;17.00;6.45;;;11.10;99.90;;;;;;5025288;28;20040;-63
2022/10/08 04:35:37;;;;;;;15.77;6.63;;;11.10;99.90;;;;;;5029174;28;20041;-63
2022/10/08 04:38:02;;;;;;;17.02;6.68;;;11.10;99.90;;;;;;5015074;28;20519;-63
2022/10/08 04:40:28;;;;;;;19.05;7.15;;;11.20;99.90;;;;;;5027359;28;20080;-63
2022/10/08 04:42:54;;;;;;;14.02;6.35;;;11.20;99.90;;;;;;5031898;28;20069;-63
2022/10/08 04:45:19;;;;;;;16.10;6.72;;;11.30;99.90;;;;;;5032508;28;20403;-64
2022/10/08 04:47:45;;;;;;;12.27;6.40;;;11.30;99.90;;;;;;5028732;28;20120;-63
2022/10/08 04:50:10;;;;;;;18.17;7.35;;;11.40;99.90;;;;;;5028301;28;20040;-63
2022/10/08 04:52:36;;;;;;;17.02;6.72;;;11.30;99.90;;;;;;5038543;28;20400;-63
2022/10/08 04:55:02;;;;;;;20.42;7.45;;;11.40;99.90;;;;;;5028976;28;20041;-63
2022/10/08 04:57:27;;;;;;;18.42;7.38;;;11.50;99.90;;;;;;5018216;28;20042;-64
2022/10/08 04:59:53;;;;;;;18.30;7.18;;;11.50;99.90;;;;;;5016543;28;20551;-62
2022/10/08 05:02:18;;;;;;;15.38;6.63;;;11.50;99.90;;;;;;5031481;28;20099;-63
2022/10/08 05:04:44;;;;;;;15.30;7.30;;;11.50;99.90;;;;;;5019855;28;20041;-63
2022/10/08 05:07:10;;;;;;;11.00;6.15;;;11.60;99.90;;;;;;5004730;28;20054;-63
2022/10/08 05:09:35;;;;;;;13.18;5.70;;;11.50;99.90;;;;;;5031575;28;20049;-62
2022/10/08 05:12:01;;;;;;;17.17;6.25;;;11.50;99.90;;;;;;5032197;28;20450;-62
2022/10/08 05:14:27;;;;;;;13.27;5.22;;;11.50;99.90;;;;;;5019965;28;20077;-63
2022/10/08 05:16:52;;;;;;;11.85;5.30;;;11.50;99.90;;;;;;5025994;28;20097;-63
2022/10/08 05:19:18;;;;;;;10.55;4.93;;;11.40;99.90;;;;;;5032108;28;20056;-64
2022/10/08 05:21:43;;;;;;;16.55;5.82;;;11.40;99.90;;;;;;5024933;28;20076;-63
2022/10/08 05:24:10;;;;;;;11.88;5.15;;;11.40;99.90;;;;;;5012472;28;20100;-64
2022/10/08 05:26:38;;;;;;;14.65;6.05;;;11.40;99.90;;;;;;5026395;28;20037;-64
2022/10/08 05:29:05;;;;;;;18.50;6.20;;;11.50;99.90;;;;;;5003640;28;20662;-62
2022/10/08 05:31:31;;;;;;;15.45;5.18;;;11.50;99.90;;;;;;5027365;28;20061;-63
2022/10/08 05:33:58;;;;;;;15.82;5.40;;;11.50;99.90;;;;;;5028760;28;20037;-64
2022/10/08 05:36:26;;;;;;;17.88;6.32;;;11.50;99.90;;;;;;5028696;28;20033;-64
2022/10/08 05:38:52;;;;;;;15.68;5.65;;;11.40;99.90;;;;;;5002754;28;20102;-63
2022/10/08 05:41:21;;;;;;;13.48;5.60;;;11.30;99.90;;;;;;5028221;28;20414;-64
2022/10/08 05:43:47;;;;;;;16.63;6.05;;;11.20;99.90;;;;;;5028862;28;20045;-64
2022/10/08 05:46:13;;;;;;;16.23;5.32;;;11.10;99.90;;;;;;5005314;28;20069;-64
2022/10/08 05:48:39;;;;;;;15.90;6.13;;;11.00;99.90;;;;;;5018807;28;20676;-64
2022/10/08 05:51:14;;;;;;;17.50;5.90;;;11.00;99.90;;;;;;5031889;28;20094;-63
2022/10/08 05:53:42;;;;;;;13.27;5.35;;;10.90;99.90;;;;;;5031161;28;20053;-64
2022/10/08 05:56:10;;;;;;;15.68;6.32;;;10.80;99.90;;;;;;5017946;28;20132;-64
2022/10/08 05:58:38;;;;;;;16.15;6.32;;;10.80;99.90;;;;;;5025229;28;20049;-63
2022/10/08 06:01:28;;;;;;;17.67;6.22;;;10.70;99.90;;;;;;5010477;28;20045;-65
2022/10/08 06:04:04;;;;;;;17.33;6.50;;;10.70;99.90;;;;;;5015833;28;20552;-63
2022/10/08 06:06:31;;;;;;;17.95;5.95;;;10.70;99.90;;;;;;5024239;28;20518;-64
2022/10/08 06:09:00;;;;;;;17.50;6.13;;;10.70;99.90;;;;;;5028425;28;20476;-64
2022/10/08 06:11:28;;;;;;;14.65;6.15;;;10.70;99.90;;;;;;5018912;28;20048;-63
2022/10/08 06:13:55;;;;;;;17.05;6.15;;;10.60;99.90;;;;;;5020222;28;20087;-63
2022/10/08 06:16:22;;;;;;;16.83;6.75;;;10.60;99.90;;;;;;5027778;28;20403;-63
2022/10/08 06:18:48;;;;;;;15.43;5.80;;;10.60;99.90;;;;;;5028406;28;20377;-63
2022/10/08 06:21:22;;;;;;;17.13;6.40;;;10.60;99.90;;;;;;5018970;28;20104;-64
2022/10/08 06:23:57;;;;;;;14.70;5.75;;;10.60;99.90;;;;;;5018261;28;20052;-64
2022/10/08 06:26:25;;;;;;;13.70;5.95;;;10.60;99.90;;;;;;5024027;28;20531;-64
2022/10/08 06:28:51;;;;;;;18.33;6.13;;;10.70;99.90;;;;;;5005731;28;20073;-63
2022/10/08 06:31:17;;;;;;;17.10;5.97;;;10.70;99.90;;;;;;5028536;28;20099;-63
2022/10/08 06:33:42;;;;;;;14.65;6.30;;;10.70;99.90;;;;;;5030501;28;20065;-64
2022/10/08 06:36:19;;;;;;;16.23;6.22;;;10.80;99.90;;;;;;5024851;28;20121;-65
2022/10/08 06:38:53;;;;;;;17.25;6.25;;;10.80;99.90;;;;;;5024558;28;20069;-63
2022/10/08 06:41:19;;;;;;;12.93;6.43;;;10.80;99.90;;;;;;5030363;28;20045;-64
2022/10/08 06:43:46;;;;;;;18.88;7.35;;;10.90;99.90;;;;;;5030970;28;20037;-64
2022/10/08 06:46:12;;;;;;;22.20;6.68;;;11.00;99.90;;;;;;5026082;28;20044;-65
2022/10/08 06:48:37;;;;;;;19.70;6.70;;;11.00;99.90;;;;;;5030193;28;20033;-64
2022/10/08 06:51:06;;;;;;;20.13;6.80;;;11.10;99.90;;;;;;5033601;28;20557;-64
2022/10/08 06:53:33;;;;;;;18.95;6.97;;;11.00;99.90;;;;;;5007735;28;20104;-63
2022/10/08 06:56:01;;;;;;;14.95;6.70;;;11.00;99.90;;;;;;5006999;28;20076;-64
2022/10/08 06:58:27;;;;;;;13.25;7.05;;;11.10;99.90;;;;;;5029616;28;20044;-64
2022/10/08 07:01:01;;;;;;;22.67;6.70;;;11.10;99.90;;;;;;5027174;28;20103;-63
2022/10/08 07:03:26;;;;;;;16.85;6.72;;;11.10;99.90;;;;;;5008393;28;20053;-63
2022/10/08 07:05:52;;;;;;;13.65;6.95;;;11.20;99.90;;;;;;5029536;28;20419;-64
2022/10/08 07:08:18;;;;;;;17.85;7.60;;;11.30;99.90;;;;;;5030475;28;20037;-64
2022/10/08 07:10:43;;;;;;;18.00;7.20;;;11.50;99.90;;;;;;5020136;28;20038;-64
2022/10/08 07:13:09;;;;;;;18.40;7.55;;;11.60;99.90;;;;;;5009304;28;20038;-64
2022/10/08 07:15:34;;;;;;;19.88;7.28;;;11.70;99.90;;;;;;5012203;28;20046;-64
2022/10/08 07:18:00;;;;;;;15.52;6.93;;;11.70;99.90;;;;;;5026296;28;20039;-63
2022/10/08 07:20:25;;;;;;;18.67;7.32;;;11.70;99.90;;;;;;5025705;28;20096;-64
2022/10/08 07:22:51;;;;;;;15.57;7.00;;;11.70;99.90;;;;;;5011936;28;20124;-63
2022/10/08 07:25:16;;;;;;;17.63;6.88;;;11.70;99.90;;;;;;5007743;28;20136;-64
2022/10/08 07:27:42;;;;;;;18.73;7.20;;;11.80;99.90;;;;;;5020476;28;20038;-65
2022/10/08 07:30:08;;;;;;;16.95;7.35;;;11.80;99.90;;;;;;5011324;28;20026;-64
2022/10/08 07:32:34;;;;;;;16.35;7.05;;;11.90;99.90;;;;;;5026511;28;20483;-64
2022/10/08 07:34:59;;;;;;;12.30;6.68;;;12.00;99.90;;;;;;5024083;28;20507;-63
2022/10/08 07:37:25;;;;;;;16.95;6.40;;;12.10;99.90;;;;;;5029782;28;20042;-63
2022/10/08 07:39:50;;;;;;;16.25;6.35;;;12.20;99.90;;;;;;5030043;28;20094;-65
2022/10/08 07:42:16;;;;;;;13.60;6.35;;;12.30;99.90;;;;;;5030002;28;20491;-63
2022/10/08 07:44:41;;;;;;;12.82;6.15;;;12.40;99.90;;;;;;5006882;28;20068;-64
2022/10/08 07:47:08;;;;;;;16.35;6.00;;;12.40;99.90;;;;;;5019675;28;20112;-63
2022/10/08 07:49:33;;;;;;;11.95;5.20;;;12.40;99.90;;;;;;5003439;28;20113;-63
2022/10/08 07:51:59;;;;;;;15.80;5.35;;;12.50;99.90;;;;;;4997168;28;20503;-65
2022/10/08 07:54:24;;;;;;;15.88;5.50;;;12.50;99.90;;;;;;5020625;28;20045;-64
2022/10/08 07:56:50;;;;;;;15.25;4.93;;;12.60;99.90;;;;;;5025107;28;20372;-63
2022/10/08 07:59:15;;;;;;;9.80;4.50;;;12.60;99.90;;;;;;5011494;28;20172;-63
2022/10/08 08:01:42;;;;;;;17.20;5.10;;;12.60;99.90;;;;;;5027072;28;20048;-64
2022/10/08 08:04:09;;;;;;;11.98;5.03;;;12.70;99.90;;;;;;5029704;28;20496;-64
2022/10/08 08:06:40;;;;;;;14.05;4.38;;;12.70;99.90;;;;;;5026695;28;20043;-63
2022/10/08 08:09:06;;;;;;;;;;;12.80;99.90;;;;;;5024290;28;20079;-63
2022/10/08 08:11:32;;;;;;;13.43;4.10;;;12.90;99.90;;;;;;5022749;28;19925;-63
2022/10/08 08:13:57;;;;;;;11.15;3.83;;;12.90;99.90;;;;;;5014678;28;20064;-64
2022/10/08 08:16:25;;;;;;;17.75;3.97;;;13.00;99.90;;;;;;5033123;28;20057;-63
2022/10/08 08:18:53;;;;;;;11.27;3.60;;;13.00;99.90;;;;;;5023156;28;20416;-64
2022/10/08 08:21:25;;;;;;;13.40;3.35;;;13.10;99.90;;;;;;5032853;28;20033;-64
2022/10/08 08:23:51;;;;;;;;;;;13.20;99.90;;;;;;5028869;28;20042;-63
2022/10/08 08:26:28;;;;;;;15.15;3.45;;;13.20;99.90;;;;;;5026548;28;19967;-63
2022/10/08 08:29:00;;;;;;;12.30;3.13;;;13.30;99.90;;;;;;5032040;28;20476;-64
2022/10/08 08:31:32;;;;;;;11.40;2.80;;;13.40;99.90;;;;;;5014822;28;20048;-65
2022/10/08 08:34:01;;;;;;;;;;;13.50;99.90;;;;;;5011738;28;20113;-63
2022/10/08 08:36:33;;;;;;;6.82;2.53;;;13.50;99.90;;;;;;5032259;28;19960;-64
2022/10/08 08:38:59;;;;;;;10.35;3.08;;;13.60;99.90;;;;;;4995870;28;20046;-64
2022/10/08 08:41:34;;;;;;;10.70;2.45;;;13.70;99.90;;;;;;5013778;28;20140;-64
2022/10/08 08:44:12;;;;;;;12.77;2.50;;;13.80;99.90;;;;;;5013949;28;20135;-64
2022/10/08 08:46:44;;;;;;;12.70;2.80;;;13.80;99.90;;;;;;5032433;28;20034;-63
2022/10/08 08:49:35;;;;;;;9.07;2.30;;;13.80;99.90;;;;;;5032736;28;20446;-64
2022/10/08 08:52:03;;;;;;;12.27;3.65;;;13.90;99.90;;;;;;5023473;28;20034;-64
2022/10/08 08:54:29;;;;;;;8.65;1.98;;;13.90;99.90;;;;;;5030668;28;20045;-64
2022/10/08 08:57:07;;;;;;;11.35;2.58;;;14.00;99.90;;;;;;5024410;28;20076;-63
2022/10/08 08:59:40;;;;;;;9.93;2.17;;;14.10;99.90;;;;;;5023041;28;20041;-63
2022/10/08 09:02:20;;;;;;;9.70;2.42;;;14.10;99.90;;;;;;5025244;28;20058;-63
2022/10/08 09:04:51;;;;;;;7.85;1.88;;;14.20;99.90;;;;;;5023989;28;20274;-63
2022/10/08 09:07:21;;;;;;;8.98;2.28;;;14.20;99.90;;;;;;5030487;28;20041;-65
2022/10/08 09:09:49;;;;;;;7.50;2.13;;;14.20;99.90;;;;;;5031028;28;20037;-63
2022/10/08 09:12:35;;;;;;;11.48;2.30;;;14.20;99.90;;;;;;5026545;28;20122;-63
2022/10/08 09:15:02;;;;;;;9.77;2.00;;;14.40;99.90;;;;;;5017626;28;20049;-64
2022/10/08 09:17:50;;;;;;;5.03;1.60;;;14.40;99.90;;;;;;5020907;28;20045;-63
2022/10/08 09:20:17;;;;;;;8.63;1.70;;;14.40;99.90;;;;;;5025507;28;20045;-63
2022/10/08 09:22:44;;;;;;;8.48;1.80;;;14.50;99.90;;;;;;5018702;28;20081;-63
2022/10/08 09:25:25;;;;;;;7.88;1.80;;;14.60;99.90;;;;;;5031762;28;20495;-63
2022/10/08 09:27:55;;;;;;;6.93;1.85;;;14.60;99.90;;;;;;5028453;28;20042;-63
2022/10/08 09:30:23;;;;;;;10.82;1.80;;;14.70;99.90;;;;;;5022535;28;20057;-63
2022/10/08 09:32:51;;;;;;;8.95;1.60;;;14.70;99.90;;;;;;5020273;28;20483;-63
2022/10/08 09:35:17;;;;;;;7.97;1.48;;;14.90;99.90;;;;;;5030270;28;20056;-63
2022/10/08 09:37:45;;;;;;;10.00;1.90;;;14.90;99.90;;;;;;5007406;28;20045;-64
2022/10/08 09:40:10;;;;;;;8.75;1.63;;;14.80;99.90;;;;;;5031273;28;20041;-63
2022/10/08 09:42:36;;;;;;;9.07;1.88;;;14.70;99.90;;;;;;5031414;28;20103;-64
2022/10/08 09:45:22;;;;;;;12.77;1.70;;;14.70;99.90;;;;;;5025279;28;20115;-63
2022/10/08 09:48:24;;;;;;;6.50;1.48;;;14.60;99.90;;;;;;5021344;28;20038;-63
2022/10/08 09:51:04;;;;;;;5.28;1.60;;;14.70;99.90;;;;;;5030145;28;20175;-63
2022/10/08 09:53:40;;;;;;;10.80;1.75;;;14.80;99.90;;;;;;5033962;28;20037;-65
2022/10/08 09:56:07;;;;;;;6.80;1.52;;;14.90;99.90;;;;;;5026232;28;20041;-64
2022/10/08 09:58:44;;;;;;;5.35;1.85;;;14.90;99.90;;;;;;5022115;28;20048;-64
2022/10/08 10:01:15;;;;;;;7.80;1.70;;;14.80;99.90;;;;;;5017437;28;20080;-64
2022/10/08 10:03:54;;;;;;;5.83;2.37;;;14.70;99.90;;;;;;5031365;28;20060;-64
2022/10/08 10:06:36;;;;;;;9.30;2.03;;;14.70;99.90;;;;;;5022041;28;20042;-64
2022/10/08 10:09:10;;;;;;;9.35;1.50;;;14.80;99.90;;;;;;5030662;28;20029;-64
2022/10/08 10:11:40;;;;;;;7.65;2.00;;;15.00;99.90;;;;;;5028782;28;20037;-64
2022/10/08 10:14:22;;;;;;;9.52;2.20;;;15.30;99.90;;;;;;4999412;28;20124;-65
2022/10/08 10:16:56;;;;;;;14.00;2.28;;;15.40;99.90;;;;;;5050748;22;20095;-63
2022/10/08 10:19:29;;;;;;;7.68;2.20;;;15.60;99.90;;;;;;5028539;28;20095;-63
2022/10/08 10:22:03;;;;;;;9.95;2.33;;;15.70;99.90;;;;;;5026470;28;20040;-66
2022/10/08 10:24:44;;;;;;;7.68;1.67;;;15.70;99.90;;;;;;5030188;28;20050;-64
2022/10/08 10:27:23;;;;;;;11.63;2.13;;;15.80;99.90;;;;;;5024100;28;20036;-64
2022/10/08 10:29:55;;;;;;;7.75;1.85;;;15.90;99.90;;;;;;5004853;28;20041;-65
2022/10/08 10:32:29;;;;;;;11.45;1.80;;;15.90;99.90;;;;;;5028547;28;20492;-65
2022/10/08 10:35:11;;;;;;;10.93;1.98;;;16.00;99.90;;;;;;5030753;28;20531;-64
2022/10/08 10:37:44;;;;;;;7.30;1.70;;;16.00;99.90;;;;;;5017752;28;20091;-63
2022/10/08 10:40:16;;;;;;;7.00;1.77;;;16.00;99.90;;;;;;5028064;28;20045;-64
2022/10/08 10:43:09;;;;;;;7.55;1.77;;;16.00;99.90;;;;;;5030125;28;20041;-65
2022/10/08 10:45:38;;;;;;;7.05;1.60;;;15.80;99.90;;;;;;5030712;28;20045;-64
2022/10/08 10:48:06;;;;;;;8.95;1.88;;;15.80;99.90;;;;;;5016290;28;20108;-66
2022/10/08 10:51:06;;;;;;;6.88;1.40;;;15.90;99.90;;;;;;5029637;28;20040;-63
2022/10/08 10:53:48;;;;;;;7.07;1.60;;;16.00;99.90;;;;;;5010847;28;20459;-64
2022/10/08 10:56:15;;;;;;;;;;;16.20;99.90;;;;;;5018803;28;20049;-63
2022/10/08 10:58:54;;;;;;;6.78;1.70;;;16.30;99.90;;;;;;5027570;28;20387;-63
2022/10/08 11:01:37;;;;;;;6.32;1.83;;;16.00;99.90;;;;;;5030034;28;20628;-64
2022/10/08 11:04:13;;;;;;;4.07;0.98;;;15.70;99.90;;;;;;5020017;28;20069;-64
2022/10/08 11:07:00;;;;;;;7.22;1.48;;;15.40;99.90;;;;;;5026115;28;20037;-64
2022/10/08 11:09:48;;;;;;;8.00;1.75;;;15.30;99.90;;;;;;5029937;28;20040;-64
2022/10/08 11:12:50;;;;;;;7.03;1.52;;;15.10;99.90;;;;;;5017290;28;20034;-64
2022/10/08 11:15:34;;;;;;;8.02;1.40;;;14.80;99.90;;;;;;5016188;28;20053;-64
2022/10/08 11:18:12;;;;;;;9.93;1.45;;;14.60;99.90;;;;;;5007763;28;20564;-64
2022/10/08 11:20:56;;;;;;;6.03;1.30;;;14.40;99.90;;;;;;5003139;28;20056;-64
2022/10/08 11:23:44;;;;;;;7.32;1.52;;;14.30;99.90;;;;;;5029772;28;20404;-65
2022/10/08 11:26:33;;;;;;;6.65;1.33;;;14.20;99.90;;;;;;5023588;28;20046;-64
2022/10/08 11:29:25;;;;;;;9.55;1.60;;;14.20;99.90;;;;;;5018586;28;20069;-65
2022/10/08 11:31:51;;;;;;;3.75;1.17;;;14.30;99.90;;;;;;5010876;28;20120;-65
2022/10/08 11:34:31;;;;;;;5.40;1.15;;;14.40;99.90;;;;;;5030196;28;20034;-63
2022/10/08 11:37:13;;;;;;;4.18;1.00;;;14.50;99.90;;;;;;5027327;28;20065;-64
2022/10/08 11:40:18;;;;;;;7.72;1.73;;;14.70;99.90;;;;;;5017928;28;20532;-64
2022/10/08 11:42:57;;;;;;;11.23;1.55;;;14.60;99.90;;;;;;5029398;28;20427;-64
2022/10/08 11:45:23;;;;;;;6.32;1.38;;;14.60;99.90;;;;;;5023423;28;20129;-64
2022/10/08 11:47:52;;;;;;;4.85;1.00;;;14.70;99.90;;;;;;5027906;28;20129;-64
2022/10/08 11:50:36;;;;;;;12.48;1.73;;;14.80;99.90;;;;;;5033724;28;20029;-64
2022/10/08 11:53:14;;;;;;;5.82;1.10;;;14.80;99.90;;;;;;5036683;28;20061;-65
2022/10/08 11:55:52;;;;;;;8.38;1.50;;;14.70;99.90;;;;;;5021087;28;20121;-65
2022/10/08 11:58:29;;;;;;;8.43;1.92;;;14.60;99.90;;;;;;5024045;28;20080;-65
2022/10/08 12:01:07;;;;;;;4.32;1.10;;;14.50;99.90;;;;;;5028686;28;20052;-65
2022/10/08 12:03:40;;;;;;;5.28;1.40;;;14.50;99.90;;;;;;5028212;28;20118;-65
2022/10/08 12:06:23;;;;;;;8.45;1.23;;;14.40;99.90;;;;;;5024799;28;20044;-64
2022/10/08 12:08:59;;;;;;;5.93;1.52;;;14.40;99.90;;;;;;5032556;28;20049;-65
2022/10/08 12:11:30;;;;;;;6.13;1.50;;;14.40;99.90;;;;;;5016379;28;20072;-65
2022/10/08 12:14:08;;;;;;;;;;;14.50;99.90;;;;;;5032032;28;20033;-65
2022/10/08 12:16:56;;;;;;;5.45;1.48;;;14.70;99.90;;;;;;5033522;28;19917;-65
2022/10/08 12:19:33;;;;;;;6.38;1.50;;;15.00;99.90;;;;;;5024614;28;20053;-65
2022/10/08 12:22:24;;;;;;;3.75;1.25;;;15.20;99.90;;;;;;5024859;28;20610;-65
2022/10/08 12:24:57;;;;;;;9.35;1.55;;;15.50;99.90;;;;;;5021893;28;20080;-64
2022/10/08 12:27:33;;;;;;;3.45;0.82;;;15.60;99.90;;;;;;5033155;28;20038;-63
2022/10/08 12:30:06;;;;;;;6.03;1.35;;;15.40;99.90;;;;;;5016643;28;20040;-65
2022/10/08 12:32:40;;;;;;;6.80;1.30;;;15.30;99.90;;;;;;5032550;28;20053;-64
2022/10/08 12:35:24;;;;;;;4.28;1.00;;;15.50;99.90;;;;;;5014244;28;20045;-64
2022/10/08 12:37:55;;;;;;;6.03;1.27;;;15.60;98.90;;;;;;5022577;28;20042;-64
2022/10/08 12:40:39;;;;;;;5.45;1.25;;;15.80;99.90;;;;;;5017600;28;20499;-64
2022/10/08 12:43:19;;;;;;;6.45;1.40;;;15.70;97.90;;;;;;5025207;28;20097;-65
2022/10/08 12:46:16;;;;;;;6.95;1.10;;;15.50;98.40;;;;;;5032885;28;20045;-65
2022/10/08 12:48:58;;;;;;;5.50;1.10;;;15.60;97.50;;;;;;5024345;28;20552;-65
2022/10/08 12:51:43;;;;;;;7.97;1.70;;;15.80;99.80;;;;;;5019694;28;20034;-64
2022/10/08 12:54:22;;;;;;;8.35;1.50;;;15.80;98.90;;;;;;5018780;28;20037;-65
2022/10/08 12:56:49;;;;;;;8.02;1.30;;;15.90;98.40;;;;;;5031706;28;20056;-66
2022/10/08 12:59:17;;;;;;;6.45;1.25;;;15.90;98.20;;;;;;5027903;28;20045;-65
2022/10/08 13:01:44;;;;;;;6.65;1.30;;;16.00;98.90;;;;;;5017760;28;20507;-65
2022/10/08 13:04:22;;;;;;;6.90;1.40;;;16.00;99.10;;;;;;5032036;28;20060;-64
2022/10/08 13:06:50;;;;;;;4.72;1.30;;;16.10;99.10;;;;;;5029438;28;20112;-65